sensor_id;sensor_type;location;lat;lon;timestamp;P1;durP1;ratioP1;P2;durP2;ratioP2
72379;SDS011;60354;47.798;12.472;2023-11-18T00:00:16;3.75;;;1.90;;
72379;SDS011;60354;47.798;12.472;2023-11-18T00:02:42;4.65;;;1.77;;
72379;SDS011;60354;47.798;12.472;2023-11-18T00:05:09;2.58;;;1.80;;
72379;SDS011;60354;47.798;12.472;2023-11-18T00:07:35;2.22;;;1.85;;
72379;SDS011;60354;47.798;12.472;2023-11-18T00:10:00;2.55;;;1.95;;
72379;SDS011;60354;47.798;12.472;2023-11-18T00:12:26;2.88;;;2.00;;
72379;SDS011;60354;47.798;12.472;2023-11-18T00:14:51;2.70;;;1.90;;
72379;SDS011;60354;47.798;12.472;2023-11-18T00:17:17;5.43;;;2.00;;
72379;SDS011;60354;47.798;12.472;2023-11-18T00:19:42;2.33;;;1.73;;
72379;SDS011;60354;47.798;12.472;2023-11-18T00:22:08;3.78;;;2.20;;
72379;SDS011;60354;47.798;12.472;2023-11-18T00:24:33;2.58;;;1.98;;
72379;SDS011;60354;47.798;12.472;2023-11-18T00:27:03;2.80;;;2.17;;
72379;SDS011;60354;47.798;12.472;2023-11-18T00:29:35;2.42;;;1.83;;
72379;SDS011;60354;47.798;12.472;2023-11-18T00:32:03;2.10;;;1.70;;
72379;SDS011;60354;47.798;12.472;2023-11-18T00:34:30;2.90;;;1.73;;
72379;SDS011;60354;47.798;12.472;2023-11-18T00:36:55;2.45;;;1.80;;
72379;SDS011;60354;47.798;12.472;2023-11-18T00:39:22;2.92;;;2.10;;
72379;SDS011;60354;47.798;12.472;2023-11-18T00:41:48;3.67;;;1.92;;
72379;SDS011;60354;47.798;12.472;2023-11-18T00:44:14;3.50;;;2.10;;
72379;SDS011;60354;47.798;12.472;2023-11-18T00:46:40;3.13;;;1.73;;
72379;SDS011;60354;47.798;12.472;2023-11-18T00:49:05;2.30;;;1.80;;
72379;SDS011;60354;47.798;12.472;2023-11-18T00:51:31;3.45;;;2.25;;
72379;SDS011;60354;47.798;12.472;2023-11-18T00:53:56;3.38;;;2.22;;
72379;SDS011;60354;47.798;12.472;2023-11-18T00:56:22;3.28;;;1.95;;
72379;SDS011;60354;47.798;12.472;2023-11-18T00:58:48;3.22;;;1.83;;
72379;SDS011;60354;47.798;12.472;2023-11-18T01:01:14;2.38;;;1.58;;
72379;SDS011;60354;47.798;12.472;2023-11-18T01:03:43;3.03;;;1.70;;
72379;SDS011;60354;47.798;12.472;2023-11-18T01:06:09;3.13;;;1.80;;
72379;SDS011;60354;47.798;12.472;2023-11-18T01:08:35;2.38;;;1.60;;
72379;SDS011;60354;47.798;12.472;2023-11-18T01:11:00;4.07;;;1.77;;
72379;SDS011;60354;47.798;12.472;2023-11-18T01:13:26;3.20;;;1.73;;
72379;SDS011;60354;47.798;12.472;2023-11-18T01:15:52;3.10;;;1.75;;
72379;SDS011;60354;47.798;12.472;2023-11-18T01:18:17;2.75;;;1.80;;
72379;SDS011;60354;47.798;12.472;2023-11-18T01:20:43;2.08;;;1.50;;
72379;SDS011;60354;47.798;12.472;2023-11-18T01:23:09;2.50;;;1.67;;
72379;SDS011;60354;47.798;12.472;2023-11-18T01:25:35;2.58;;;1.40;;
72379;SDS011;60354;47.798;12.472;2023-11-18T01:28:00;1.63;;;1.40;;
72379;SDS011;60354;47.798;12.472;2023-11-18T01:30:26;1.98;;;1.40;;
72379;SDS011;60354;47.798;12.472;2023-11-18T01:32:52;2.05;;;1.55;;
72379;SDS011;60354;47.798;12.472;2023-11-18T01:35:17;2.00;;;1.42;;
72379;SDS011;60354;47.798;12.472;2023-11-18T01:37:44;1.92;;;1.48;;
72379;SDS011;60354;47.798;12.472;2023-11-18T01:40:10;4.53;;;1.65;;
72379;SDS011;60354;47.798;12.472;2023-11-18T01:42:44;1.85;;;1.40;;
72379;SDS011;60354;47.798;12.472;2023-11-18T01:45:11;2.78;;;1.90;;
72379;SDS011;60354;47.798;12.472;2023-11-18T01:47:38;3.40;;;1.40;;
72379;SDS011;60354;47.798;12.472;2023-11-18T01:50:05;1.50;;;1.27;;
72379;SDS011;60354;47.798;12.472;2023-11-18T01:52:33;2.35;;;1.55;;
72379;SDS011;60354;47.798;12.472;2023-11-18T01:55:00;2.25;;;1.60;;
72379;SDS011;60354;47.798;12.472;2023-11-18T01:57:29;2.75;;;1.50;;
72379;SDS011;60354;47.798;12.472;2023-11-18T01:59:54;1.88;;;1.50;;
72379;SDS011;60354;47.798;12.472;2023-11-18T02:02:20;2.40;;;1.60;;
72379;SDS011;60354;47.798;12.472;2023-11-18T02:04:46;3.47;;;1.30;;
72379;SDS011;60354;47.798;12.472;2023-11-18T02:07:12;2.10;;;1.60;;
72379;SDS011;60354;47.798;12.472;2023-11-18T02:09:40;2.67;;;1.55;;
72379;SDS011;60354;47.798;12.472;2023-11-18T02:12:19;1.70;;;1.45;;
72379;SDS011;60354;47.798;12.472;2023-11-18T02:14:51;1.75;;;1.40;;
72379;SDS011;60354;47.798;12.472;2023-11-18T02:17:20;2.22;;;1.50;;
72379;SDS011;60354;47.798;12.472;2023-11-18T02:19:51;2.22;;;1.63;;
72379;SDS011;60354;47.798;12.472;2023-11-18T02:22:17;1.90;;;1.50;;
72379;SDS011;60354;47.798;12.472;2023-11-18T02:24:43;1.95;;;1.40;;
72379;SDS011;60354;47.798;12.472;2023-11-18T02:27:09;2.33;;;1.58;;
72379;SDS011;60354;47.798;12.472;2023-11-18T02:29:37;3.25;;;1.63;;
72379;SDS011;60354;47.798;12.472;2023-11-18T02:37:37;2.03;;;1.50;;
72379;SDS011;60354;47.798;12.472;2023-11-18T02:40:11;1.70;;;1.23;;
72379;SDS011;60354;47.798;12.472;2023-11-18T02:42:42;2.20;;;1.55;;
72379;SDS011;60354;47.798;12.472;2023-11-18T02:45:09;2.45;;;1.80;;
72379;SDS011;60354;47.798;12.472;2023-11-18T02:47:37;1.73;;;1.40;;
72379;SDS011;60354;47.798;12.472;2023-11-18T02:50:05;1.70;;;1.48;;
72379;SDS011;60354;47.798;12.472;2023-11-18T02:52:36;1.83;;;1.40;;
72379;SDS011;60354;47.798;12.472;2023-11-18T02:55:04;1.75;;;1.48;;
72379;SDS011;60354;47.798;12.472;2023-11-18T02:57:32;2.10;;;1.50;;
72379;SDS011;60354;47.798;12.472;2023-11-18T02:59:58;2.83;;;1.50;;
72379;SDS011;60354;47.798;12.472;2023-11-18T03:02:28;2.60;;;1.58;;
72379;SDS011;60354;47.798;12.472;2023-11-18T03:04:55;1.88;;;1.38;;
72379;SDS011;60354;47.798;12.472;2023-11-18T03:07:24;1.85;;;1.40;;
72379;SDS011;60354;47.798;12.472;2023-11-18T03:09:52;3.00;;;1.60;;
72379;SDS011;60354;47.798;12.472;2023-11-18T03:12:19;2.63;;;1.48;;
72379;SDS011;60354;47.798;12.472;2023-11-18T03:14:45;2.10;;;1.55;;
72379;SDS011;60354;47.798;12.472;2023-11-18T03:17:10;1.80;;;1.38;;
72379;SDS011;60354;47.798;12.472;2023-11-18T03:19:36;2.53;;;1.48;;
72379;SDS011;60354;47.798;12.472;2023-11-18T03:22:02;2.58;;;1.50;;
72379;SDS011;60354;47.798;12.472;2023-11-18T03:24:28;1.75;;;1.40;;
72379;SDS011;60354;47.798;12.472;2023-11-18T03:26:54;1.65;;;1.30;;
72379;SDS011;60354;47.798;12.472;2023-11-18T03:29:20;1.70;;;1.30;;
72379;SDS011;60354;47.798;12.472;2023-11-18T03:31:46;1.70;;;1.45;;
72379;SDS011;60354;47.798;12.472;2023-11-18T03:34:14;1.90;;;1.35;;
72379;SDS011;60354;47.798;12.472;2023-11-18T03:36:40;1.40;;;1.20;;
72379;SDS011;60354;47.798;12.472;2023-11-18T03:39:06;1.33;;;1.20;;
72379;SDS011;60354;47.798;12.472;2023-11-18T03:41:31;1.30;;;1.20;;
72379;SDS011;60354;47.798;12.472;2023-11-18T03:43:57;1.30;;;1.10;;
72379;SDS011;60354;47.798;12.472;2023-11-18T03:46:23;1.65;;;1.30;;
72379;SDS011;60354;47.798;12.472;2023-11-18T03:48:48;1.75;;;1.20;;
72379;SDS011;60354;47.798;12.472;2023-11-18T03:51:14;1.30;;;1.20;;
72379;SDS011;60354;47.798;12.472;2023-11-18T03:53:42;1.60;;;1.38;;
72379;SDS011;60354;47.798;12.472;2023-11-18T03:56:08;1.33;;;1.20;;
72379;SDS011;60354;47.798;12.472;2023-11-18T03:58:33;1.40;;;1.20;;
72379;SDS011;60354;47.798;12.472;2023-11-18T04:01:00;1.63;;;1.15;;
72379;SDS011;60354;47.798;12.472;2023-11-18T04:03:26;1.30;;;1.20;;
72379;SDS011;60354;47.798;12.472;2023-11-18T04:05:52;1.77;;;1.20;;
72379;SDS011;60354;47.798;12.472;2023-11-18T04:08:17;1.50;;;1.27;;
72379;SDS011;60354;47.798;12.472;2023-11-18T04:10:47;1.80;;;1.38;;
72379;SDS011;60354;47.798;12.472;2023-11-18T04:13:13;1.23;;;1.13;;
72379;SDS011;60354;47.798;12.472;2023-11-18T04:15:38;2.50;;;1.10;;
72379;SDS011;60354;47.798;12.472;2023-11-18T04:18:04;2.00;;;1.35;;
72379;SDS011;60354;47.798;12.472;2023-11-18T04:20:29;1.42;;;1.27;;
72379;SDS011;60354;47.798;12.472;2023-11-18T04:22:55;1.45;;;1.13;;
72379;SDS011;60354;47.798;12.472;2023-11-18T04:25:20;1.38;;;1.20;;
72379;SDS011;60354;47.798;12.472;2023-11-18T04:27:46;1.42;;;1.30;;
72379;SDS011;60354;47.798;12.472;2023-11-18T04:30:12;1.60;;;1.30;;
72379;SDS011;60354;47.798;12.472;2023-11-18T04:32:38;1.48;;;1.30;;
72379;SDS011;60354;47.798;12.472;2023-11-18T04:35:03;1.55;;;1.25;;
72379;SDS011;60354;47.798;12.472;2023-11-18T04:37:32;1.25;;;1.15;;
72379;SDS011;60354;47.798;12.472;2023-11-18T04:39:59;1.70;;;1.35;;
72379;SDS011;60354;47.798;12.472;2023-11-18T04:42:24;2.70;;;1.27;;
72379;SDS011;60354;47.798;12.472;2023-11-18T04:44:50;1.73;;;1.38;;
72379;SDS011;60354;47.798;12.472;2023-11-18T04:47:15;1.33;;;1.23;;
72379;SDS011;60354;47.798;12.472;2023-11-18T04:49:45;1.63;;;1.33;;
72379;SDS011;60354;47.798;12.472;2023-11-18T04:52:10;1.60;;;1.30;;
72379;SDS011;60354;47.798;12.472;2023-11-18T04:54:36;2.90;;;1.20;;
72379;SDS011;60354;47.798;12.472;2023-11-18T04:57:01;1.30;;;1.20;;
72379;SDS011;60354;47.798;12.472;2023-11-18T04:59:27;1.40;;;1.20;;
72379;SDS011;60354;47.798;12.472;2023-11-18T05:01:53;1.92;;;1.17;;
72379;SDS011;60354;47.798;12.472;2023-11-18T05:04:18;1.55;;;1.25;;
72379;SDS011;60354;47.798;12.472;2023-11-18T05:06:44;1.77;;;1.25;;
72379;SDS011;60354;47.798;12.472;2023-11-18T05:09:10;1.85;;;1.30;;
72379;SDS011;60354;47.798;12.472;2023-11-18T05:11:35;2.20;;;1.35;;
72379;SDS011;60354;47.798;12.472;2023-11-18T05:14:01;1.83;;;1.45;;
72379;SDS011;60354;47.798;12.472;2023-11-18T05:16:28;1.90;;;1.33;;
72379;SDS011;60354;47.798;12.472;2023-11-18T05:18:54;1.77;;;1.30;;
72379;SDS011;60354;47.798;12.472;2023-11-18T05:21:20;1.63;;;1.25;;
72379;SDS011;60354;47.798;12.472;2023-11-18T05:23:45;1.55;;;1.33;;
72379;SDS011;60354;47.798;12.472;2023-11-18T05:26:11;2.15;;;1.40;;
72379;SDS011;60354;47.798;12.472;2023-11-18T05:28:36;2.28;;;1.20;;
72379;SDS011;60354;47.798;12.472;2023-11-18T05:31:04;1.55;;;1.20;;
72379;SDS011;60354;47.798;12.472;2023-11-18T05:33:30;1.38;;;1.13;;
72379;SDS011;60354;47.798;12.472;2023-11-18T05:35:56;1.10;;;1.00;;
72379;SDS011;60354;47.798;12.472;2023-11-18T05:38:22;1.60;;;1.25;;
72379;SDS011;60354;47.798;12.472;2023-11-18T05:40:49;2.10;;;1.20;;
72379;SDS011;60354;47.798;12.472;2023-11-18T05:43:27;1.25;;;1.15;;
72379;SDS011;60354;47.798;12.472;2023-11-18T05:46:01;1.40;;;1.15;;
72379;SDS011;60354;47.798;12.472;2023-11-18T05:48:44;1.88;;;1.27;;
72379;SDS011;60354;47.798;12.472;2023-11-18T05:51:10;1.50;;;1.30;;
72379;SDS011;60354;47.798;12.472;2023-11-18T05:53:40;1.83;;;1.40;;
72379;SDS011;60354;47.798;12.472;2023-11-18T05:56:07;1.90;;;1.40;;
72379;SDS011;60354;47.798;12.472;2023-11-18T05:58:33;1.40;;;1.30;;
72379;SDS011;60354;47.798;12.472;2023-11-18T06:00:59;2.47;;;1.33;;
72379;SDS011;60354;47.798;12.472;2023-11-18T06:03:25;1.50;;;1.35;;
72379;SDS011;60354;47.798;12.472;2023-11-18T06:05:50;1.73;;;1.20;;
72379;SDS011;60354;47.798;12.472;2023-11-18T06:08:16;2.63;;;1.65;;
72379;SDS011;60354;47.798;12.472;2023-11-18T06:10:42;2.22;;;1.75;;
72379;SDS011;60354;47.798;12.472;2023-11-18T06:13:10;2.67;;;1.33;;
72379;SDS011;60354;47.798;12.472;2023-11-18T06:15:38;1.85;;;1.48;;
72379;SDS011;60354;47.798;12.472;2023-11-18T06:18:04;1.58;;;1.30;;
72379;SDS011;60354;47.798;12.472;2023-11-18T06:20:30;1.77;;;1.40;;
72379;SDS011;60354;47.798;12.472;2023-11-18T06:22:56;1.48;;;1.30;;
72379;SDS011;60354;47.798;12.472;2023-11-18T06:25:22;2.08;;;1.50;;
72379;SDS011;60354;47.798;12.472;2023-11-18T06:27:50;1.33;;;1.17;;
72379;SDS011;60354;47.798;12.472;2023-11-18T06:30:18;2.40;;;1.40;;
72379;SDS011;60354;47.798;12.472;2023-11-18T06:32:45;1.73;;;1.48;;
72379;SDS011;60354;47.798;12.472;2023-11-18T06:35:12;2.30;;;1.50;;
72379;SDS011;60354;47.798;12.472;2023-11-18T06:37:40;5.28;;;1.75;;
72379;SDS011;60354;47.798;12.472;2023-11-18T06:40:06;1.77;;;1.50;;
72379;SDS011;60354;47.798;12.472;2023-11-18T06:42:42;1.85;;;1.40;;
72379;SDS011;60354;47.798;12.472;2023-11-18T06:45:08;1.80;;;1.40;;
72379;SDS011;60354;47.798;12.472;2023-11-18T06:47:34;2.53;;;1.70;;
72379;SDS011;60354;47.798;12.472;2023-11-18T06:50:01;1.83;;;1.50;;
72379;SDS011;60354;47.798;12.472;2023-11-18T06:52:27;2.58;;;1.58;;
72379;SDS011;60354;47.798;12.472;2023-11-18T06:54:53;3.05;;;1.85;;
72379;SDS011;60354;47.798;12.472;2023-11-18T06:57:20;2.03;;;1.67;;
72379;SDS011;60354;47.798;12.472;2023-11-18T06:59:46;2.28;;;1.55;;
72379;SDS011;60354;47.798;12.472;2023-11-18T07:02:13;2.10;;;1.50;;
72379;SDS011;60354;47.798;12.472;2023-11-18T07:04:40;2.67;;;1.92;;
72379;SDS011;60354;47.798;12.472;2023-11-18T07:07:06;1.70;;;1.50;;
72379;SDS011;60354;47.798;12.472;2023-11-18T07:09:33;1.95;;;1.40;;
72379;SDS011;60354;47.798;12.472;2023-11-18T07:12:01;2.85;;;2.00;;
72379;SDS011;60354;47.798;12.472;2023-11-18T07:14:28;2.78;;;1.90;;
72379;SDS011;60354;47.798;12.472;2023-11-18T07:16:54;2.97;;;1.98;;
72379;SDS011;60354;47.798;12.472;2023-11-18T07:19:20;2.70;;;1.98;;
72379;SDS011;60354;47.798;12.472;2023-11-18T07:21:46;2.63;;;1.90;;
72379;SDS011;60354;47.798;12.472;2023-11-18T07:24:12;2.42;;;1.70;;
72379;SDS011;60354;47.798;12.472;2023-11-18T07:26:37;2.00;;;1.60;;
72379;SDS011;60354;47.798;12.472;2023-11-18T07:29:03;2.88;;;1.80;;
72379;SDS011;60354;47.798;12.472;2023-11-18T07:31:28;2.60;;;1.90;;
72379;SDS011;60354;47.798;12.472;2023-11-18T07:33:54;2.05;;;1.67;;
72379;SDS011;60354;47.798;12.472;2023-11-18T07:36:20;2.78;;;1.60;;
72379;SDS011;60354;47.798;12.472;2023-11-18T07:38:46;2.10;;;1.70;;
72379;SDS011;60354;47.798;12.472;2023-11-18T07:41:12;2.13;;;1.60;;
72379;SDS011;60354;47.798;12.472;2023-11-18T07:43:51;3.38;;;2.00;;
72379;SDS011;60354;47.798;12.472;2023-11-18T07:46:20;2.33;;;1.80;;
72379;SDS011;60354;47.798;12.472;2023-11-18T07:48:48;4.88;;;2.50;;
72379;SDS011;60354;47.798;12.472;2023-11-18T07:51:14;5.57;;;3.28;;
72379;SDS011;60354;47.798;12.472;2023-11-18T07:53:40;3.92;;;2.45;;
72379;SDS011;60354;47.798;12.472;2023-11-18T07:56:06;2.92;;;2.05;;
72379;SDS011;60354;47.798;12.472;2023-11-18T07:58:33;2.40;;;1.80;;
72379;SDS011;60354;47.798;12.472;2023-11-18T08:01:02;2.70;;;2.00;;
72379;SDS011;60354;47.798;12.472;2023-11-18T08:03:29;2.65;;;1.92;;
72379;SDS011;60354;47.798;12.472;2023-11-18T08:05:59;3.55;;;2.50;;
72379;SDS011;60354;47.798;12.472;2023-11-18T08:08:24;4.30;;;2.90;;
72379;SDS011;60354;47.798;12.472;2023-11-18T08:10:50;5.13;;;3.22;;
72379;SDS011;60354;47.798;12.472;2023-11-18T08:13:16;5.47;;;2.60;;
72379;SDS011;60354;47.798;12.472;2023-11-18T08:15:42;4.07;;;2.50;;
72379;SDS011;60354;47.798;12.472;2023-11-18T08:18:11;3.38;;;2.40;;
72379;SDS011;60354;47.798;12.472;2023-11-18T08:20:37;4.32;;;3.05;;
72379;SDS011;60354;47.798;12.472;2023-11-18T08:23:03;4.13;;;3.10;;
72379;SDS011;60354;47.798;12.472;2023-11-18T08:25:31;3.90;;;2.70;;
72379;SDS011;60354;47.798;12.472;2023-11-18T08:28:00;3.97;;;2.72;;
72379;SDS011;60354;47.798;12.472;2023-11-18T08:30:27;3.67;;;2.55;;
72379;SDS011;60354;47.798;12.472;2023-11-18T08:32:52;5.13;;;3.30;;
72379;SDS011;60354;47.798;12.472;2023-11-18T08:35:18;5.07;;;3.40;;
72379;SDS011;60354;47.798;12.472;2023-11-18T08:37:44;4.05;;;2.90;;
72379;SDS011;60354;47.798;12.472;2023-11-18T08:40:11;3.30;;;2.30;;
72379;SDS011;60354;47.798;12.472;2023-11-18T08:42:43;4.57;;;2.78;;
72379;SDS011;60354;47.798;12.472;2023-11-18T08:47:42;4.22;;;2.45;;
72379;SDS011;60354;47.798;12.472;2023-11-18T08:50:09;3.88;;;1.98;;
72379;SDS011;60354;47.798;12.472;2023-11-18T08:52:37;4.18;;;2.65;;
72379;SDS011;60354;47.798;12.472;2023-11-18T08:55:11;11.25;;;5.47;;
72379;SDS011;60354;47.798;12.472;2023-11-18T08:57:52;12.40;;;6.68;;
72379;SDS011;60354;47.798;12.472;2023-11-18T09:00:23;3.70;;;2.50;;
72379;SDS011;60354;47.798;12.472;2023-11-18T09:03:28;8.48;;;4.70;;
72379;SDS011;60354;47.798;12.472;2023-11-18T09:06:03;7.90;;;3.97;;
72379;SDS011;60354;47.798;12.472;2023-11-18T09:08:35;4.30;;;3.10;;
72379;SDS011;60354;47.798;12.472;2023-11-18T09:11:06;3.63;;;2.80;;
72379;SDS011;60354;47.798;12.472;2023-11-18T09:13:33;3.17;;;2.55;;
72379;SDS011;60354;47.798;12.472;2023-11-18T09:16:00;4.57;;;2.78;;
72379;SDS011;60354;47.798;12.472;2023-11-18T09:18:31;4.70;;;2.53;;
72379;SDS011;60354;47.798;12.472;2023-11-18T09:20:58;3.80;;;2.90;;
72379;SDS011;60354;47.798;12.472;2023-11-18T09:23:26;3.20;;;2.25;;
72379;SDS011;60354;47.798;12.472;2023-11-18T09:25:52;2.72;;;2.28;;
72379;SDS011;60354;47.798;12.472;2023-11-18T09:28:19;3.25;;;2.28;;
72379;SDS011;60354;47.798;12.472;2023-11-18T09:30:45;3.28;;;2.20;;
72379;SDS011;60354;47.798;12.472;2023-11-18T09:33:23;2.75;;;2.17;;
72379;SDS011;60354;47.798;12.472;2023-11-18T09:38:25;3.05;;;2.13;;
72379;SDS011;60354;47.798;12.472;2023-11-18T09:40:56;3.08;;;2.00;;
72379;SDS011;60354;47.798;12.472;2023-11-18T09:43:23;3.15;;;1.90;;
72379;SDS011;60354;47.798;12.472;2023-11-18T09:45:50;2.78;;;1.80;;
72379;SDS011;60354;47.798;12.472;2023-11-18T09:48:20;3.90;;;1.70;;
72379;SDS011;60354;47.798;12.472;2023-11-18T09:50:50;2.40;;;1.80;;
72379;SDS011;60354;47.798;12.472;2023-11-18T09:53:17;3.50;;;1.88;;
72379;SDS011;60354;47.798;12.472;2023-11-18T09:56:07;4.35;;;2.15;;
72379;SDS011;60354;47.798;12.472;2023-11-18T09:58:40;3.42;;;2.03;;
72379;SDS011;60354;47.798;12.472;2023-11-18T10:01:14;2.45;;;1.80;;
72379;SDS011;60354;47.798;12.472;2023-11-18T10:03:43;2.88;;;1.80;;
72379;SDS011;60354;47.798;12.472;2023-11-18T10:06:12;2.65;;;1.67;;
72379;SDS011;60354;47.798;12.472;2023-11-18T10:08:40;3.08;;;1.75;;
72379;SDS011;60354;47.798;12.472;2023-11-18T10:11:11;2.88;;;1.80;;
72379;SDS011;60354;47.798;12.472;2023-11-18T10:13:38;2.08;;;1.60;;
72379;SDS011;60354;47.798;12.472;2023-11-18T10:16:08;2.47;;;1.30;;
72379;SDS011;60354;47.798;12.472;2023-11-18T10:18:34;1.83;;;1.33;;
72379;SDS011;60354;47.798;12.472;2023-11-18T10:21:01;2.13;;;1.20;;
72379;SDS011;60354;47.798;12.472;2023-11-18T10:23:29;1.80;;;1.20;;
72379;SDS011;60354;47.798;12.472;2023-11-18T10:25:59;2.42;;;1.50;;
72379;SDS011;60354;47.798;12.472;2023-11-18T10:28:29;2.00;;;1.40;;
72379;SDS011;60354;47.798;12.472;2023-11-18T10:31:01;2.55;;;1.63;;
72379;SDS011;60354;47.798;12.472;2023-11-18T10:33:37;3.15;;;1.80;;
72379;SDS011;60354;47.798;12.472;2023-11-18T10:36:06;1.95;;;1.30;;
72379;SDS011;60354;47.798;12.472;2023-11-18T10:38:47;2.55;;;1.40;;
72379;SDS011;60354;47.798;12.472;2023-11-18T10:41:18;2.00;;;1.20;;
72379;SDS011;60354;47.798;12.472;2023-11-18T10:43:47;3.78;;;1.85;;
72379;SDS011;60354;47.798;12.472;2023-11-18T10:46:15;9.27;;;3.03;;
72379;SDS011;60354;47.798;12.472;2023-11-18T10:51:13;1.90;;;1.30;;
72379;SDS011;60354;47.798;12.472;2023-11-18T10:53:42;1.85;;;1.30;;
72379;SDS011;60354;47.798;12.472;2023-11-18T10:56:26;3.58;;;1.27;;
72379;SDS011;60354;47.798;12.472;2023-11-18T10:58:57;1.58;;;0.90;;
72379;SDS011;60354;47.798;12.472;2023-11-18T11:01:35;1.52;;;1.10;;
72379;SDS011;60354;47.798;12.472;2023-11-18T11:04:07;1.60;;;1.05;;
72379;SDS011;60354;47.798;12.472;2023-11-18T11:06:46;1.23;;;0.95;;
72379;SDS011;60354;47.798;12.472;2023-11-18T11:09:20;1.73;;;1.40;;
72379;SDS011;60354;47.798;12.472;2023-11-18T11:11:53;6.47;;;1.65;;
72379;SDS011;60354;47.798;12.472;2023-11-18T11:14:24;1.50;;;1.20;;
72379;SDS011;60354;47.798;12.472;2023-11-18T11:17:00;1.45;;;1.15;;
72379;SDS011;60354;47.798;12.472;2023-11-18T11:20:09;1.83;;;1.35;;
72379;SDS011;60354;47.798;12.472;2023-11-18T11:29:02;2.47;;;1.65;;
72379;SDS011;60354;47.798;12.472;2023-11-18T11:31:39;3.03;;;1.90;;
72379;SDS011;60354;47.798;12.472;2023-11-18T11:36:44;0.75;;;0.75;;
72379;SDS011;60354;47.798;12.472;2023-11-18T11:39:13;0.50;;;0.50;;
72379;SDS011;60354;47.798;12.472;2023-11-18T11:41:46;2.40;;;1.48;;
72379;SDS011;60354;47.798;12.472;2023-11-18T11:44:16;0.90;;;0.80;;
72379;SDS011;60354;47.798;12.472;2023-11-18T11:46:44;0.77;;;0.75;;
72379;SDS011;60354;47.798;12.472;2023-11-18T11:49:18;1.08;;;0.90;;
72379;SDS011;60354;47.798;12.472;2023-11-18T11:57:58;5.80;;;1.00;;
72379;SDS011;60354;47.798;12.472;2023-11-18T12:00:25;1.40;;;1.08;;
72379;SDS011;60354;47.798;12.472;2023-11-18T12:02:59;1.63;;;1.00;;
72379;SDS011;60354;47.798;12.472;2023-11-18T12:05:29;2.17;;;1.20;;
72379;SDS011;60354;47.798;12.472;2023-11-18T12:07:58;1.25;;;1.02;;
72379;SDS011;60354;47.798;12.472;2023-11-18T12:10:27;1.77;;;1.20;;
72379;SDS011;60354;47.798;12.472;2023-11-18T12:13:11;1.98;;;1.20;;
72379;SDS011;60354;47.798;12.472;2023-11-18T12:15:50;1.42;;;0.80;;
72379;SDS011;60354;47.798;12.472;2023-11-18T12:18:22;3.38;;;1.30;;
72379;SDS011;60354;47.798;12.472;2023-11-18T12:20:49;1.25;;;0.90;;
72379;SDS011;60354;47.798;12.472;2023-11-18T12:23:21;1.17;;;0.90;;
72379;SDS011;60354;47.798;12.472;2023-11-18T12:25:53;1.58;;;0.95;;
72379;SDS011;60354;47.798;12.472;2023-11-18T12:28:26;1.35;;;1.05;;
72379;SDS011;60354;47.798;12.472;2023-11-18T12:30:53;2.55;;;0.93;;
72379;SDS011;60354;47.798;12.472;2023-11-18T12:42:03;1.23;;;0.80;;
72379;SDS011;60354;47.798;12.472;2023-11-18T12:44:35;3.00;;;0.90;;
72379;SDS011;60354;47.798;12.472;2023-11-18T12:47:05;2.05;;;1.27;;
72379;SDS011;60354;47.798;12.472;2023-11-18T12:49:43;4.05;;;1.90;;
72379;SDS011;60354;47.798;12.472;2023-11-18T12:52:15;2.13;;;1.30;;
72379;SDS011;60354;47.798;12.472;2023-11-18T12:54:43;3.10;;;1.70;;
72379;SDS011;60354;47.798;12.472;2023-11-18T12:57:13;6.07;;;2.55;;
72379;SDS011;60354;47.798;12.472;2023-11-18T12:59:39;2.95;;;1.50;;
72379;SDS011;60354;47.798;12.472;2023-11-18T13:02:12;4.50;;;2.50;;
72379;SDS011;60354;47.798;12.472;2023-11-18T13:04:47;2.42;;;1.40;;
72379;SDS011;60354;47.798;12.472;2023-11-18T13:07:14;3.80;;;2.00;;
72379;SDS011;60354;47.798;12.472;2023-11-18T13:09:42;3.25;;;1.83;;
72379;SDS011;60354;47.798;12.472;2023-11-18T13:12:09;2.20;;;1.60;;
72379;SDS011;60354;47.798;12.472;2023-11-18T13:14:35;2.30;;;1.50;;
72379;SDS011;60354;47.798;12.472;2023-11-18T13:17:02;2.50;;;1.80;;
72379;SDS011;60354;47.798;12.472;2023-11-18T13:19:31;2.38;;;1.80;;
72379;SDS011;60354;47.798;12.472;2023-11-18T13:22:03;2.22;;;1.60;;
72379;SDS011;60354;47.798;12.472;2023-11-18T13:27:00;2.78;;;1.75;;
72379;SDS011;60354;47.798;12.472;2023-11-18T13:29:29;1.85;;;1.27;;
72379;SDS011;60354;47.798;12.472;2023-11-18T13:31:56;2.85;;;1.50;;
72379;SDS011;60354;47.798;12.472;2023-11-18T13:34:23;2.70;;;1.70;;
72379;SDS011;60354;47.798;12.472;2023-11-18T13:36:50;4.00;;;2.30;;
72379;SDS011;60354;47.798;12.472;2023-11-18T13:39:17;2.25;;;1.52;;
72379;SDS011;60354;47.798;12.472;2023-11-18T13:41:43;1.77;;;1.45;;
72379;SDS011;60354;47.798;12.472;2023-11-18T13:44:10;2.10;;;1.40;;
72379;SDS011;60354;47.798;12.472;2023-11-18T13:46:59;1.58;;;1.20;;
72379;SDS011;60354;47.798;12.472;2023-11-18T13:49:27;2.67;;;1.50;;
72379;SDS011;60354;47.798;12.472;2023-11-18T13:51:54;2.90;;;1.70;;
72379;SDS011;60354;47.798;12.472;2023-11-18T13:54:21;3.10;;;1.95;;
72379;SDS011;60354;47.798;12.472;2023-11-18T13:56:48;2.22;;;1.65;;
72379;SDS011;60354;47.798;12.472;2023-11-18T13:59:15;2.63;;;1.80;;
72379;SDS011;60354;47.798;12.472;2023-11-18T14:01:41;2.67;;;1.90;;
72379;SDS011;60354;47.798;12.472;2023-11-18T14:04:07;3.50;;;2.20;;
72379;SDS011;60354;47.798;12.472;2023-11-18T14:06:35;7.30;;;3.60;;
72379;SDS011;60354;47.798;12.472;2023-11-18T14:09:00;8.75;;;4.00;;
72379;SDS011;60354;47.798;12.472;2023-11-18T14:11:26;9.63;;;4.68;;
72379;SDS011;60354;47.798;12.472;2023-11-18T14:13:51;6.35;;;3.40;;
72379;SDS011;60354;47.798;12.472;2023-11-18T14:16:18;3.15;;;1.98;;
72379;SDS011;60354;47.798;12.472;2023-11-18T14:18:46;3.50;;;2.10;;
72379;SDS011;60354;47.798;12.472;2023-11-18T14:21:13;2.75;;;1.95;;
72379;SDS011;60354;47.798;12.472;2023-11-18T14:23:39;3.75;;;2.25;;
72379;SDS011;60354;47.798;12.472;2023-11-18T14:26:05;3.90;;;2.30;;
72379;SDS011;60354;47.798;12.472;2023-11-18T14:28:32;4.13;;;2.10;;
72379;SDS011;60354;47.798;12.472;2023-11-18T14:31:00;1.88;;;1.50;;
72379;SDS011;60354;47.798;12.472;2023-11-18T14:33:27;2.88;;;1.90;;
72379;SDS011;60354;47.798;12.472;2023-11-18T14:35:53;4.60;;;2.78;;
72379;SDS011;60354;47.798;12.472;2023-11-18T14:38:19;4.22;;;2.10;;
72379;SDS011;60354;47.798;12.472;2023-11-18T14:40:45;3.83;;;2.47;;
72379;SDS011;60354;47.798;12.472;2023-11-18T14:43:13;3.78;;;2.45;;
72379;SDS011;60354;47.798;12.472;2023-11-18T14:45:40;3.78;;;2.40;;
72379;SDS011;60354;47.798;12.472;2023-11-18T14:48:05;3.42;;;2.55;;
72379;SDS011;60354;47.798;12.472;2023-11-18T14:50:31;4.10;;;2.65;;
72379;SDS011;60354;47.798;12.472;2023-11-18T14:52:56;4.30;;;2.53;;
72379;SDS011;60354;47.798;12.472;2023-11-18T14:55:25;4.18;;;2.28;;
72379;SDS011;60354;47.798;12.472;2023-11-18T14:57:54;3.55;;;2.30;;
72379;SDS011;60354;47.798;12.472;2023-11-18T15:00:20;3.50;;;2.45;;
72379;SDS011;60354;47.798;12.472;2023-11-18T15:02:54;3.15;;;2.17;;
72379;SDS011;60354;47.798;12.472;2023-11-18T15:05:20;6.97;;;2.10;;
72379;SDS011;60354;47.798;12.472;2023-11-18T15:07:55;3.22;;;1.90;;
72379;SDS011;60354;47.798;12.472;2023-11-18T15:10:26;3.83;;;2.35;;
72379;SDS011;60354;47.798;12.472;2023-11-18T15:12:53;3.83;;;2.22;;
72379;SDS011;60354;47.798;12.472;2023-11-18T15:15:24;3.78;;;2.08;;
72379;SDS011;60354;47.798;12.472;2023-11-18T15:17:57;3.08;;;1.90;;